createdAt,value
2022-10-08T00:02:00.055Z,69.43
2022-10-08T00:04:29.906Z,68.18
2022-10-08T00:06:56.891Z,68.18
2022-10-08T00:09:24.046Z,72.85
2022-10-08T00:11:53.603Z,70.57
2022-10-08T00:14:27.134Z,71.25
2022-10-08T00:16:54.034Z,76.15
2022-10-08T00:19:21.028Z,76.55
2022-10-08T00:21:51.136Z,74.07
2022-10-08T00:24:28.248Z,73.80
2022-10-08T00:26:56.633Z,78.22
2022-10-08T00:29:23.862Z,75.22
2022-10-08T00:31:52.150Z,74.55
2022-10-08T00:34:23.646Z,79.93
2022-10-08T00:36:52.778Z,70.53
2022-10-08T00:39:22.553Z,74.93
2022-10-08T00:41:52.642Z,74.80
2022-10-08T00:44:51.060Z,74.47
2022-10-08T00:47:32.723Z,73.05
2022-10-08T00:50:24.738Z,75.13
2022-10-08T00:52:59.641Z,72.07
2022-10-08T00:55:28.357Z,77.65
2022-10-08T00:58:02.439Z,82.35
2022-10-08T01:00:31.275Z,76.35
2022-10-08T01:03:07.318Z,84.30
2022-10-08T01:05:55.483Z,86.13
2022-10-08T01:08:59.561Z,79.10
2022-10-08T01:11:52.307Z,75.72
2022-10-08T01:14:38.644Z,88.63
2022-10-08T01:17:41.459Z,82.85
2022-10-08T01:20:54.110Z,88.05
2022-10-08T01:23:45.053Z,83.82
2022-10-08T01:26:45.747Z,83.85
2022-10-08T01:29:31.233Z,85.85
2022-10-08T01:32:12.240Z,87.90
2022-10-08T01:35:01.883Z,88.07
2022-10-08T01:37:51.853Z,77.00
2022-10-08T01:43:00.588Z,86.72
2022-10-08T01:45:40.777Z,90.95
2022-10-08T01:48:20.749Z,89.32
2022-10-08T01:51:19.638Z,90.20
2022-10-08T01:55:27.300Z,86.03
2022-10-08T01:57:15.718Z,94.97
2022-10-08T01:59:54.663Z,92.25
2022-10-08T02:02:27.441Z,88.33
2022-10-08T02:05:04.019Z,97.60
2022-10-08T02:07:47.415Z,97.03
2022-10-08T02:10:26.718Z,88.93
2022-10-08T02:12:57.661Z,91.47
2022-10-08T02:15:32.311Z,86.63
2022-10-08T02:21:00.242Z,85.82
2022-10-08T02:23:34.897Z,84.93
2022-10-08T02:26:06.086Z,93.07
2022-10-08T02:28:58.135Z,93.68
2022-10-08T02:31:27.154Z,89.43
2022-10-08T02:34:12.542Z,95.70
2022-10-08T02:36:43.328Z,101.22
2022-10-08T02:39:13.035Z,97.75
2022-10-08T02:41:47.939Z,100.38
2022-10-08T02:44:20.613Z,87.82
2022-10-08T02:46:50.954Z,94.72
2022-10-08T02:49:28.562Z,96.05
2022-10-08T02:51:58.726Z,91.70
2022-10-08T02:54:25.868Z,100.10
2022-10-08T02:56:58.383Z,99.63
2022-10-08T02:59:25.494Z,90.18
2022-10-08T03:01:59.226Z,89.80
2022-10-08T03:04:36.477Z,84.53
2022-10-08T03:07:04.239Z,92.15
2022-10-08T03:09:39.152Z,96.05
2022-10-08T03:12:06.911Z,103.20
2022-10-08T03:14:41.043Z,84.07
2022-10-08T03:17:10.629Z,95.32
2022-10-08T03:19:37.352Z,99.75
2022-10-08T03:22:04.743Z,92.68
2022-10-08T03:24:31.543Z,84.82
2022-10-08T03:26:58.952Z,86.95
2022-10-08T03:29:25.695Z,89.13
2022-10-08T03:31:52.397Z,79.68
2022-10-08T03:34:19.145Z,79.55
2022-10-08T03:36:45.964Z,84.75
2022-10-08T03:39:12.923Z,83.38
2022-10-08T03:41:40.692Z,95.03
2022-10-08T03:44:09.382Z,81.07
2022-10-08T03:46:36.302Z,79.40
2022-10-08T03:49:03.087Z,83.47
2022-10-08T03:51:29.886Z,77.22
2022-10-08T03:53:57.621Z,76.32
2022-10-08T03:56:27.763Z,82.03
2022-10-08T03:58:56.889Z,77.90
2022-10-08T04:01:25.213Z,79.35
2022-10-08T04:03:53.395Z,87.10
2022-10-08T04:06:20.652Z,76.03
2022-10-08T04:08:47.582Z,70.63
2022-10-08T04:11:16.208Z,66.07
2022-10-08T04:13:43.939Z,68.45
2022-10-08T04:16:16.150Z,68.25
2022-10-08T04:18:43.766Z,65.05
2022-10-08T04:21:13.097Z,68.25
2022-10-08T04:23:41.437Z,63.83
2022-10-08T04:26:10.080Z,58.00
2022-10-08T04:28:38.982Z,65.22
2022-10-08T04:31:08.652Z,54.80
2022-10-08T04:33:36.273Z,54.58
2022-10-08T04:36:14.995Z,52.97
2022-10-08T04:38:46.015Z,54.22
2022-10-08T04:41:14.351Z,52.88
2022-10-08T04:43:42.562Z,51.33
2022-10-08T04:46:11.136Z,51.38
2022-10-08T04:48:38.813Z,48.00
2022-10-08T04:51:10.575Z,52.63
2022-10-08T04:53:38.751Z,53.42
2022-10-08T04:56:18.526Z,49.60
2022-10-08T04:58:52.612Z,47.92
2022-10-08T05:01:20.419Z,47.33
2022-10-08T05:03:52.015Z,48.75
2022-10-08T05:06:22.114Z,50.25
2022-10-08T05:08:49.594Z,46.80
2022-10-08T05:11:17.292Z,48.50
2022-10-08T05:13:49.632Z,49.67
2022-10-08T05:16:18.443Z,46.80
2022-10-08T05:18:46.478Z,48.38
2022-10-08T05:21:16.457Z,50.80
2022-10-08T05:26:28.779Z,50.58
2022-10-08T05:29:10.999Z,50.85
2022-10-08T05:31:38.525Z,51.38
2022-10-08T05:34:05.697Z,50.83
2022-10-08T05:36:33.675Z,51.72
2022-10-08T05:39:02.793Z,48.85
2022-10-08T05:41:32.149Z,56.00
2022-10-08T05:43:59.587Z,46.78
2022-10-08T05:46:28.144Z,45.85
2022-10-08T05:49:00.634Z,48.35
2022-10-08T05:51:28.991Z,47.53
2022-10-08T05:53:57.003Z,47.42
2022-10-08T05:56:25.171Z,53.85
2022-10-08T05:58:59.996Z,44.30
2022-10-08T06:01:29.729Z,46.03
2022-10-08T06:04:08.153Z,49.30
2022-10-08T06:06:37.005Z,51.42
2022-10-08T06:09:04.389Z,48.80
2022-10-08T06:11:33.182Z,50.03
2022-10-08T06:14:03.552Z,46.97
2022-10-08T06:16:30.907Z,49.70
2022-10-08T06:18:58.013Z,45.90
2022-10-08T06:21:26.884Z,46.00
2022-10-08T06:23:55.912Z,45.45
2022-10-08T06:26:26.858Z,46.17
2022-10-08T06:28:55.365Z,43.88
2022-10-08T06:31:44.214Z,55.15
2022-10-08T06:34:11.036Z,44.72
2022-10-08T06:36:38.114Z,46.47
2022-10-08T06:39:18.538Z,39.72
2022-10-08T06:41:45.834Z,37.42
2022-10-08T06:44:14.467Z,41.20
2022-10-08T06:47:07.774Z,41.03
2022-10-08T06:49:35.286Z,40.72
2022-10-08T06:52:02.054Z,41.67
2022-10-08T06:54:28.800Z,36.70
2022-10-08T06:56:55.965Z,35.97
2022-10-08T06:59:22.785Z,35.97
2022-10-08T07:01:53.816Z,31.52
2022-10-08T07:04:20.583Z,33.15
2022-10-08T07:06:47.302Z,31.90
2022-10-08T07:09:15.074Z,31.83
2022-10-08T07:11:41.819Z,29.88
2022-10-08T07:14:08.537Z,27.67
2022-10-08T07:16:35.366Z,28.83
2022-10-08T07:19:02.193Z,30.08
2022-10-08T07:21:30.301Z,27.83
2022-10-08T07:23:59.686Z,25.75
2022-10-08T07:26:29.486Z,24.58
2022-10-08T07:29:01.162Z,28.23
2022-10-08T07:31:33.760Z,25.27
2022-10-08T07:34:02.597Z,26.45
2022-10-08T07:36:29.890Z,25.13
2022-10-08T07:39:02.397Z,26.05
2022-10-08T07:41:32.912Z,25.50
2022-10-08T07:44:02.511Z,27.33
2022-10-08T07:46:31.054Z,28.45
2022-10-08T07:49:01.844Z,28.05
2022-10-08T07:51:31.619Z,25.10
2022-10-08T07:54:02.563Z,27.30
2022-10-08T07:56:30.772Z,27.95
2022-10-08T07:58:58.497Z,27.83
2022-10-08T08:01:30.080Z,27.92
2022-10-08T08:04:09.111Z,25.58
2022-10-08T08:06:49.644Z,27.85
2022-10-08T08:09:16.925Z,29.23
2022-10-08T08:11:43.722Z,27.48
2022-10-08T08:14:10.682Z,27.83
2022-10-08T08:16:38.276Z,32.63
2022-10-08T08:19:14.961Z,29.00
2022-10-08T08:21:41.822Z,26.90
2022-10-08T08:24:12.168Z,28.15
2022-10-08T08:26:45.813Z,30.15
2022-10-08T08:29:15.097Z,28.02
2022-10-08T08:31:44.793Z,28.17
2022-10-08T08:34:15.022Z,28.48
2022-10-08T08:36:45.492Z,54.65
2022-10-08T08:39:31.897Z,38.00
2022-10-08T08:42:18.592Z,29.42
2022-10-08T08:45:05.136Z,33.20
2022-10-08T08:47:38.744Z,29.38
2022-10-08T08:50:30.657Z,36.75
2022-10-08T08:52:57.913Z,30.25
2022-10-08T08:55:39.184Z,34.80
2022-10-08T08:58:12.867Z,37.00
2022-10-08T09:00:42.977Z,60.17
2022-10-08T09:03:28.368Z,31.95
2022-10-08T09:05:58.914Z,27.15
2022-10-08T09:08:40.963Z,27.00
2022-10-08T09:11:14.364Z,28.58
2022-10-08T09:13:47.793Z,29.48
2022-10-08T09:16:15.141Z,29.05
2022-10-08T09:18:47.984Z,41.03
2022-10-08T09:21:15.126Z,27.75
2022-10-08T09:23:42.314Z,30.98
2022-10-08T09:26:15.943Z,27.33
2022-10-08T09:29:30.762Z,27.20
2022-10-08T09:32:21.130Z,44.95
2022-10-08T09:34:48.877Z,30.83
2022-10-08T09:37:21.865Z,29.38
2022-10-08T09:40:07.888Z,39.85
2022-10-08T09:42:34.652Z,31.35
2022-10-08T09:45:04.052Z,36.20
2022-10-08T09:47:33.795Z,27.38
2022-10-08T09:50:22.656Z,28.63
2022-10-08T09:56:38.978Z,29.02
2022-10-08T09:59:07.190Z,36.40
2022-10-08T10:01:34.064Z,29.58
2022-10-08T10:04:02.848Z,32.50
2022-10-08T10:06:39.023Z,36.15
2022-10-08T10:09:32.313Z,37.63
2022-10-08T10:12:10.894Z,29.40
2022-10-08T10:14:43.565Z,35.58
2022-10-08T10:17:18.536Z,68.97
2022-10-08T10:19:55.502Z,31.85
2022-10-08T10:22:29.519Z,35.65
2022-10-08T10:25:13.030Z,36.95
2022-10-08T10:27:47.711Z,32.42
2022-10-08T10:30:25.128Z,33.60
2022-10-08T10:33:02.958Z,35.53
2022-10-08T10:35:32.745Z,34.13
2022-10-08T10:38:02.386Z,36.42
2022-10-08T10:40:33.183Z,37.88
2022-10-08T10:43:18.572Z,36.20
2022-10-08T10:45:52.231Z,38.50
2022-10-08T10:48:21.073Z,36.10
2022-10-08T10:51:23.893Z,33.95
2022-10-08T10:54:06.553Z,29.85
2022-10-08T10:56:38.797Z,30.45
2022-10-08T10:59:17.975Z,37.85
2022-10-08T11:01:58.283Z,37.38
2022-10-08T11:04:52.879Z,36.10
2022-10-08T11:07:49.493Z,31.55
2022-10-08T11:10:22.333Z,34.38
2022-10-08T11:13:01.158Z,34.83
2022-10-08T11:15:47.847Z,33.45
2022-10-08T11:18:39.274Z,31.05
2022-10-08T11:21:06.325Z,29.88
2022-10-08T11:23:57.104Z,35.70
2022-10-08T11:26:34.754Z,37.50
2022-10-08T11:29:23.761Z,31.23
2022-10-08T11:31:53.014Z,37.70
2022-10-08T11:34:27.069Z,29.67
2022-10-08T11:37:13.137Z,29.20
2022-10-08T11:39:57.967Z,82.20
2022-10-08T11:42:49.027Z,36.13
2022-10-08T11:45:24.957Z,26.95
2022-10-08T11:47:54.566Z,49.60
2022-10-08T11:50:37.973Z,30.67
2022-10-08T11:53:10.882Z,26.42
2022-10-08T11:55:38.354Z,25.75
2022-10-08T11:58:17.170Z,27.02
2022-10-08T12:00:46.152Z,26.90
2022-10-08T12:03:27.627Z,23.48
2022-10-08T12:05:58.178Z,26.33
2022-10-08T12:08:55.807Z,24.20
2022-10-08T12:11:40.675Z,23.85
2022-10-08T12:14:14.639Z,31.40
2022-10-08T12:16:58.732Z,27.23
2022-10-08T12:19:34.846Z,31.10
2022-10-08T12:22:17.644Z,86.50
2022-10-08T12:24:49.693Z,26.50
2022-10-08T12:27:17.186Z,23.63
2022-10-08T12:30:14.397Z,22.27
2022-10-08T12:32:44.275Z,24.15
2022-10-08T12:35:34.159Z,24.90
2022-10-08T12:38:09.035Z,21.80
2022-10-08T12:40:47.753Z,24.05
2022-10-08T12:43:42.363Z,22.27
2022-10-08T12:46:28.335Z,20.95
2022-10-08T12:49:29.613Z,36.00
2022-10-08T12:52:07.588Z,22.17
2022-10-08T12:54:34.773Z,22.63
2022-10-08T12:57:09.292Z,24.70
2022-10-08T12:59:39.215Z,20.27
2022-10-08T13:02:26.817Z,22.65
2022-10-08T13:04:53.537Z,23.33
2022-10-08T13:07:29.575Z,20.30
2022-10-08T13:09:58.876Z,24.52
2022-10-08T13:12:25.798Z,22.98
2022-10-08T13:15:08.934Z,22.33
2022-10-08T13:17:36.897Z,23.35
2022-10-08T13:20:18.203Z,22.65
2022-10-08T13:22:45.044Z,24.52
2022-10-08T13:25:38.095Z,19.02
2022-10-08T13:28:41.721Z,19.88
2022-10-08T13:31:23.536Z,21.30
2022-10-08T13:33:51.000Z,19.73
2022-10-08T13:36:23.685Z,19.90
2022-10-08T13:38:50.788Z,19.52
2022-10-08T13:41:24.092Z,24.08
2022-10-08T13:43:51.243Z,18.23
2022-10-08T13:46:18.015Z,22.08
2022-10-08T13:48:45.110Z,31.52
2022-10-08T13:51:12.118Z,21.77
2022-10-08T13:53:42.253Z,19.95
2022-10-08T13:56:09.129Z,21.92
2022-10-08T13:58:35.818Z,21.55
2022-10-08T14:01:02.577Z,21.63
2022-10-08T14:03:29.272Z,23.52
2022-10-08T14:05:56.022Z,24.23
2022-10-08T14:08:29.493Z,24.00
2022-10-08T14:10:58.477Z,21.02
2022-10-08T14:13:26.020Z,18.98
2022-10-08T14:15:52.882Z,18.48
2022-10-08T14:18:19.707Z,22.35
2022-10-08T14:20:46.438Z,18.83
2022-10-08T14:23:14.175Z,22.30
2022-10-08T14:25:40.903Z,19.52
2022-10-08T14:28:08.714Z,25.92
2022-10-08T14:30:35.521Z,22.13
2022-10-08T14:33:03.496Z,23.15
2022-10-08T14:35:31.597Z,21.15
2022-10-08T14:37:58.354Z,22.73
2022-10-08T14:40:25.232Z,29.58
2022-10-08T14:42:52.187Z,27.17
2022-10-08T14:45:19.108Z,27.80
2022-10-08T14:47:46.354Z,24.17
2022-10-08T14:50:13.871Z,22.45
2022-10-08T14:52:44.259Z,24.23
2022-10-08T14:55:11.705Z,27.83
2022-10-08T14:57:38.536Z,28.35
2022-10-08T15:00:05.897Z,28.65
2022-10-08T15:02:34.538Z,26.60
2022-10-08T15:05:01.897Z,30.90
2022-10-08T15:07:28.943Z,24.98
2022-10-08T15:09:55.681Z,22.02
2022-10-08T15:12:22.503Z,29.30
2022-10-08T15:14:49.239Z,26.70
2022-10-08T15:17:16.286Z,25.25
2022-10-08T15:19:43.026Z,27.35
2022-10-08T15:22:10.081Z,28.52
2022-10-08T15:24:36.837Z,26.15
2022-10-08T15:27:03.660Z,30.77
2022-10-08T15:29:30.425Z,30.92
2022-10-08T15:31:57.219Z,30.90
2022-10-08T15:34:23.951Z,27.70
2022-10-08T15:36:50.718Z,28.88
2022-10-08T15:39:19.298Z,26.20
2022-10-08T15:41:49.562Z,29.30
2022-10-08T15:44:18.352Z,28.38
2022-10-08T15:46:47.128Z,31.70
2022-10-08T15:49:14.844Z,30.98
2022-10-08T15:51:42.047Z,28.77
2022-10-08T15:54:09.277Z,29.23
2022-10-08T15:56:36.047Z,30.40
2022-10-08T15:59:03.527Z,29.65
2022-10-08T16:01:31.224Z,31.08
2022-10-08T16:04:00.251Z,26.85
2022-10-08T16:06:32.053Z,29.88
2022-10-08T16:08:58.849Z,27.65
2022-10-08T16:11:28.933Z,32.85
2022-10-08T16:13:59.957Z,27.83
2022-10-08T16:16:27.367Z,32.63
2022-10-08T16:18:59.758Z,30.60
2022-10-08T16:21:28.228Z,27.08
2022-10-08T16:23:55.373Z,28.15
2022-10-08T16:26:22.830Z,32.50
2022-10-08T16:28:55.166Z,32.58
2022-10-08T16:31:22.584Z,31.08
2022-10-08T16:33:55.803Z,26.63
2022-10-08T16:36:23.001Z,30.25
2022-10-08T16:38:49.962Z,30.80
2022-10-08T16:41:22.251Z,33.25
2022-10-08T16:43:51.648Z,31.85
2022-10-08T16:46:30.680Z,29.40
2022-10-08T16:49:03.202Z,26.83
2022-10-08T16:51:32.744Z,32.33
2022-10-08T16:54:01.100Z,37.92
2022-10-08T16:56:30.504Z,28.65
2022-10-08T16:59:06.913Z,35.10
2022-10-08T17:01:34.976Z,27.55
2022-10-08T17:04:04.873Z,32.05
2022-10-08T17:08:58.887Z,30.25
2022-10-08T17:11:26.270Z,32.45
2022-10-08T17:13:55.916Z,37.35
2022-10-08T17:16:24.488Z,29.73
2022-10-08T17:18:56.032Z,30.27
2022-10-08T17:21:23.377Z,28.75
2022-10-08T17:23:50.806Z,31.35
2022-10-08T17:26:20.332Z,29.15
2022-10-08T17:28:48.563Z,32.13
2022-10-08T17:31:19.271Z,37.03
2022-10-08T17:33:46.975Z,33.70
2022-10-08T17:36:17.136Z,30.55
2022-10-08T17:38:45.630Z,29.95
2022-10-08T17:41:24.761Z,29.83
2022-10-08T17:43:53.425Z,30.73
2022-10-08T17:46:24.731Z,29.20
2022-10-08T17:48:51.947Z,29.25
2022-10-08T17:51:22.051Z,30.38
2022-10-08T17:53:55.745Z,34.90
2022-10-08T17:56:23.733Z,29.48
2022-10-08T17:58:51.086Z,32.88
2022-10-08T18:01:21.016Z,33.50
2022-10-08T18:03:57.878Z,31.48
2022-10-08T18:06:29.655Z,33.97
2022-10-08T18:09:06.092Z,36.20
2022-10-08T18:11:35.663Z,35.50
2022-10-08T18:14:04.592Z,39.88
2022-10-08T18:16:32.676Z,51.97
2022-10-08T18:19:02.716Z,40.65
2022-10-08T18:21:32.033Z,34.00
2022-10-08T18:23:59.905Z,31.90
2022-10-08T18:26:34.868Z,39.58
2022-10-08T18:29:05.242Z,36.58
2022-10-08T18:31:33.706Z,36.63
2022-10-08T18:34:04.624Z,36.72
2022-10-08T18:36:33.748Z,35.70
2022-10-08T18:39:28.299Z,36.80
2022-10-08T18:41:56.015Z,34.35
2022-10-08T18:44:27.565Z,36.90
2022-10-08T18:46:54.811Z,35.75
2022-10-08T18:49:29.643Z,39.90
2022-10-08T18:51:57.778Z,35.17
2022-10-08T18:54:27.367Z,44.35
2022-10-08T18:56:57.261Z,38.90
2022-10-08T18:59:25.066Z,41.72
2022-10-08T19:01:56.961Z,46.95
2022-10-08T19:04:26.869Z,41.92
2022-10-08T19:06:54.371Z,48.03
2022-10-08T19:09:22.505Z,46.05
2022-10-08T19:11:52.302Z,40.95
2022-10-08T19:16:50.552Z,43.78
2022-10-08T19:21:49.660Z,39.22
2022-10-08T19:24:20.052Z,47.55
2022-10-08T19:26:49.643Z,48.50
2022-10-08T19:29:21.172Z,41.00
2022-10-08T19:31:50.653Z,42.10
2022-10-08T19:34:23.858Z,45.67
2022-10-08T19:36:52.380Z,48.15
2022-10-08T19:39:24.293Z,43.35
2022-10-08T19:41:55.060Z,43.50
2022-10-08T19:44:25.054Z,40.92
2022-10-08T19:46:53.857Z,42.13
2022-10-08T19:49:21.887Z,42.58
2022-10-08T19:51:51.063Z,41.92
2022-10-08T19:54:20.482Z,43.35
2022-10-08T19:56:49.625Z,47.20
2022-10-08T19:59:18.992Z,48.87
2022-10-08T20:01:46.479Z,54.35
2022-10-08T20:04:14.804Z,49.63
2022-10-08T20:06:44.085Z,45.40
2022-10-08T20:09:13.581Z,56.47
2022-10-08T20:11:43.255Z,47.67
2022-10-08T20:14:14.832Z,52.17
2022-10-08T20:16:43.259Z,48.53
2022-10-08T20:19:22.421Z,46.13
2022-10-08T20:21:55.429Z,46.43
2022-10-08T20:24:23.294Z,48.13
2022-10-08T20:26:51.100Z,44.47
2022-10-08T20:29:23.585Z,49.97
2022-10-08T20:31:55.447Z,42.47
2022-10-08T20:34:27.635Z,41.30
2022-10-08T20:36:55.637Z,42.85
2022-10-08T20:39:22.482Z,42.13
2022-10-08T20:41:49.784Z,43.80
2022-10-08T20:44:17.515Z,42.75
2022-10-08T20:46:44.951Z,39.58
2022-10-08T20:49:13.273Z,39.63
2022-10-08T20:51:42.352Z,44.55
2022-10-08T20:54:12.368Z,35.92
2022-10-08T20:56:40.530Z,39.70
2022-10-08T20:59:10.087Z,36.13
2022-10-08T21:01:38.985Z,39.45
2022-10-08T21:04:06.950Z,42.37
2022-10-08T21:06:42.220Z,35.92
2022-10-08T21:09:09.498Z,40.28
2022-10-08T21:11:37.053Z,40.92
2022-10-08T21:14:04.334Z,35.10
2022-10-08T21:16:34.410Z,34.70
2022-10-08T21:19:04.262Z,40.90
2022-10-08T21:21:32.269Z,35.83
2022-10-08T21:23:59.986Z,31.80
2022-10-08T21:26:32.164Z,32.65
2022-10-08T21:29:01.168Z,31.17
2022-10-08T21:31:29.899Z,29.73
2022-10-08T21:33:57.848Z,30.52
2022-10-08T21:36:27.838Z,32.10
2022-10-08T21:38:55.027Z,27.52
2022-10-08T21:41:24.452Z,27.23
2022-10-08T21:43:53.693Z,30.58
2022-10-08T21:46:23.267Z,29.42
2022-10-08T21:49:00.052Z,29.13
2022-10-08T21:51:28.362Z,25.48
2022-10-08T21:53:58.657Z,27.08
2022-10-08T21:56:28.204Z,30.67
2022-10-08T21:58:59.134Z,28.92
2022-10-08T22:01:32.104Z,29.70
2022-10-08T22:04:01.593Z,32.17
2022-10-08T22:06:30.401Z,26.60
2022-10-08T22:08:57.633Z,32.47
2022-10-08T22:11:25.033Z,31.13
2022-10-08T22:13:52.006Z,27.80
2022-10-08T22:16:20.263Z,30.42
2022-10-08T22:18:47.090Z,27.52
2022-10-08T22:21:16.515Z,30.70
2022-10-08T22:23:43.887Z,30.25
2022-10-08T22:26:16.095Z,27.48
2022-10-08T22:28:43.437Z,22.38
2022-10-08T22:31:12.911Z,25.83
2022-10-08T22:33:40.512Z,23.25
2022-10-08T22:36:10.983Z,25.40
2022-10-08T22:38:39.699Z,23.45
2022-10-08T22:41:09.633Z,21.98
2022-10-08T22:46:06.049Z,20.23
2022-10-08T22:48:33.696Z,16.70
2022-10-08T22:51:06.654Z,17.83
2022-10-08T22:53:35.429Z,20.48
2022-10-08T22:56:06.903Z,20.67
2022-10-08T22:58:34.773Z,23.00
2022-10-08T23:03:37.522Z,19.10
2022-10-08T23:06:23.890Z,21.55
2022-10-08T23:09:01.634Z,23.60
2022-10-08T23:11:29.376Z,23.27
2022-10-08T23:13:57.706Z,21.77
2022-10-08T23:16:26.294Z,23.95
2022-10-08T23:18:59.033Z,22.55
2022-10-08T23:21:26.526Z,26.90
2022-10-08T23:23:54.629Z,21.88
2022-10-08T23:26:23.103Z,25.35
2022-10-08T23:28:54.741Z,36.90
2022-10-08T23:31:26.784Z,26.55
2022-10-08T23:33:55.296Z,24.58
2022-10-08T23:36:30.852Z,21.40
2022-10-08T23:38:57.797Z,22.42
2022-10-08T23:41:25.493Z,22.48
2022-10-08T23:43:53.380Z,23.38
2022-10-08T23:46:22.688Z,21.27
2022-10-08T23:48:51.342Z,21.05
2022-10-08T23:51:19.848Z,25.02
2022-10-08T23:53:48.002Z,24.80
2022-10-08T23:56:14.866Z,21.83
2022-10-08T23:58:41.907Z,19.63
